Terminal Aerodrome Forecast
Issued by NWS

Home | Current Version | Previous Version | Text Only | Print | Product List | Glossary On
Versions: 1 2 3 4 5 6 7 8 9 10 11 12 13
721
FTUS45 KRIW 081127
TAFCPR
TAF
KCPR 081127Z 0812/0912 24011KT P6SM FEW100 WS015/31025KT
     FM081500 24014G20KT P6SM SCT250
     FM090000 23010KT P6SM SKC WS015/30025KT
     FM090900 24014G20KT P6SM SKC=

USA.gov is the U.S. government's official web portal to all federal, state and local government web resources and services.